Ncc Najd — HZAK — position and weather

sailwx.info

Track history (hours):
 
Tides and Currents Weather Stations Pressure Air Temp Water Temp Dewpoint Dewpoint Depression Visibility Wind Speed Wind Dir Waves Ship Positions

Ncc Najd

Last reported at 2018-Apr-25 23:27 UTC. Time now 2018-Apr-27 06:41 UTC.
Position N 01°24' E 103°13'.

Length 183 m; draft 8.1 m.

Type: Tanker. MMSI: 403579000.

Date/timePositionNaut miles runAvg speedWind from/ knotsBaromVisibWave heightAir tempDewpointWater temp
2018-Apr-25 23:27N 01°24' E 103°13'613.6
2018-Apr-25 22:59N 01°20' E 103°18'713.9
2018-Apr-25 22:30N 01°16' E 103°23'714.4
2018-Apr-25 21:59N 01°13' E 103°29'713.7
2018-Apr-25 21:30N 01°11' E 103°36'713.0
2018-Apr-25 20:59N 01°09' E 103°42'3 5.8
2018-Apr-25 20:30N 01°08' E 103°45'2 3.3
2018-Apr-25 20:00N 01°09' E 103°46'3 5.8
2018-Apr-25 19:31N 01°11' E 103°49'612.3
2018-Apr-25 19:00N 01°13' E 103°54'5 9.1
2018-Apr-25 18:30N 01°15' E 103°59'611.7
2018-Apr-25 17:59N 01°16' E 104°05'611.6
2018-Apr-25 17:30N 01°17' E 104°10'712.2
2018-Apr-25 16:58N 01°18' E 104°17'511.4
2018-Apr-25 16:30N 01°20' E 104°21'812.8
2018-Apr-25 15:54N 01°26' E 104°27'713.8
2018-Apr-25 15:25N 01°30' E 104°31'  
2018-Apr-20 16:40N 22°14' E 119°50'514.0
2018-Apr-20 16:20N 22°19' E 119°51'513.4
2018-Apr-20 15:59N 22°23' E 119°51'812.7
2018-Apr-20 15:23N 22°31' E 119°51'512.9
2018-Apr-20 14:58N 22°36' E 119°51'612.9
2018-Apr-20 14:28N 22°43' E 119°51'612.6
2018-Apr-20 13:58N 22°49' E 119°51'2812.4
2018-Apr-20 11:40N 23°18' E 119°53'212.8
2018-Apr-20 11:30N 23°20' E 119°53'613.0
2018-Apr-20 11:00N 23°26' E 119°53'713.4
2018-Apr-20 10:30N 23°33' E 119°53'713.6
2018-Apr-20 10:00N 23°40' E 119°53'713.7
2018-Apr-20 09:30N 23°47' E 119°53'814.2
2018-Apr-20 08:57N 23°55' E 119°53'2713.8
2018-Apr-20 06:58N 24°18' E 120°08'10812.4
2018-Apr-19 22:16N 25°27' E 121°40'312.5
2018-Apr-19 22:01N 25°25' E 121°43'612.3
2018-Apr-19 21:31N 25°20' E 121°47'612.7
2018-Apr-19 21:01N 25°14' E 121°46'510.2
2018-Apr-19 20:30N 25°09' E 121°45'0 0.7
2018-Apr-19 19:58N 25°08' E 121°45'0 0.0
2018-Apr-19 19:29N 25°08' E 121°45'0 0.0
2018-Apr-19 18:59N 25°08' E 121°45'0 0.0
2018-Apr-19 18:29N 25°08' E 121°45'0 0.0
2018-Apr-19 17:58N 25°08' E 121°45'0 0.0
2018-Apr-19 17:25N 25°08' E 121°45'0 0.0
2018-Apr-19 16:59N 25°08' E 121°45'0 0.0
2018-Apr-19 16:29N 25°08' E 121°45'0 0.0
2018-Apr-19 15:59N 25°08' E 121°45'0 0.0
2018-Apr-19 15:29N 25°08' E 121°45'0 0.0
2018-Apr-19 14:59N 25°08' E 121°45'0 0.0
2018-Apr-19 14:29N 25°08' E 121°45'0 0.0
2018-Apr-19 13:56N 25°08' E 121°45'0 0.0
2018-Apr-19 13:29N 25°08' E 121°45'0 0.0
2018-Apr-19 12:59N 25°08' E 121°45'0 0.0
2018-Apr-19 12:28N 25°08' E 121°45'0 0.0
2018-Apr-19 11:59N 25°08' E 121°45'0 0.0
2018-Apr-19 11:29N 25°08' E 121°45'0 0.0
2018-Apr-19 10:59N 25°08' E 121°45'0 0.0
2018-Apr-19 10:25N 25°09' E 121°45'0 0.0
2018-Apr-19 09:59N 25°08' E 121°45'0 0.0
2018-Apr-19 09:29N 25°08' E 121°45'0 0.0
2018-Apr-19 08:58N 25°08' E 121°45'0 0.0
2018-Apr-19 08:28N 25°08' E 121°45'0 0.0
2018-Apr-19 07:58N 25°09' E 121°45'0 0.0
2018-Apr-19 07:30N 25°09' E 121°45'2 4.1
2018-Apr-19 07:00N 25°11' E 121°45'5 9.8
2018-Apr-19 06:30N 25°15' E 121°44'4 7.7
2018-Apr-19 06:00N 25°19' E 121°43'611.9
2018-Apr-19 05:30N 25°25' E 121°41'611.5
2018-Apr-19 05:00N 25°27' E 121°35'9210.4
2018-Apr-18 20:05N 24°20' E 120°25'48 1.3
2018-Apr-17 06:23N 23°41' E 119°54'410.8
2018-Apr-17 06:00N 23°37' E 119°54'511.0
2018-Apr-17 05:30N 23°32' E 119°55'611.1
2018-Apr-17 05:00N 23°26' E 119°55'811.6
2018-Apr-17 04:20N 23°18' E 119°55'512.2
2018-Apr-17 03:55N 23°13' E 119°54'512.5
2018-Apr-17 03:30N 23°08' E 119°54'1513.0
2018-Apr-17 02:21N 22°53' E 119°55'512.9
2018-Apr-17 02:00N 22°49' E 119°55'613.0
2018-Apr-17 01:30N 22°43' E 119°58'612.0
2018-Apr-17 01:00N 22°38' E 120°01'713.5
2018-Apr-17 00:30N 22°38' E 120°08'611.6
2018-Apr-17 00:00N 22°37' E 120°15'3 5.8
2018-Apr-16 23:30N 22°36' E 120°17'1 1.9
2018-Apr-16 22:58N 22°35' E 120°18'0 0.0
2018-Apr-16 22:31N 22°35' E 120°18'0 0.0
2018-Apr-16 22:01N 22°35' E 120°18'0 0.0
2018-Apr-16 21:25N 22°35' E 120°18'0 0.0
2018-Apr-16 20:58N 22°35' E 120°18'0 0.0
2018-Apr-16 20:28N 22°35' E 120°18'0 0.0
2018-Apr-16 19:55N 22°35' E 120°18'0 0.0
2018-Apr-16 19:28N 22°35' E 120°18'0 0.0
2018-Apr-16 18:58N 22°35' E 120°18'0 0.0
2018-Apr-16 18:28N 22°35' E 120°18'0 0.0
2018-Apr-16 18:01N 22°35' E 120°18'0 0.0
2018-Apr-16 17:31N 22°35' E 120°18'0 0.0
2018-Apr-16 16:58N 22°35' E 120°18'0 0.0
2018-Apr-16 16:28N 22°35' E 120°18'0 0.0
2018-Apr-16 16:01N 22°35' E 120°18'0 0.0
2018-Apr-16 15:28N 22°35' E 120°18'0 0.0
2018-Apr-16 14:58N 22°35' E 120°18'0 0.0
2018-Apr-16 14:28N 22°35' E 120°18'0 0.0
2018-Apr-16 13:58N 22°35' E 120°18'0 0.0
2018-Apr-16 13:28N 22°35' E 120°18'0 0.0
2018-Apr-16 12:58N 22°35' E 120°18'0 0.0
2018-Apr-16 12:28N 22°35' E 120°18'0 0.0
2018-Apr-16 12:01N 22°35' E 120°18'0 0.0
2018-Apr-16 11:28N 22°35' E 120°18'0 0.0
2018-Apr-16 10:55N 22°35' E 120°18'0 0.0
2018-Apr-16 10:31N 22°35' E 120°18'0 0.0
2018-Apr-16 09:58N 22°35' E 120°18'0 0.0
2018-Apr-16 09:28N 22°35' E 120°18'0 0.0
2018-Apr-16 08:55N 22°35' E 120°18'0 0.0
2018-Apr-16 08:28N 22°35' E 120°18'0 0.0
2018-Apr-16 07:58N 22°35' E 120°18'0 0.0
2018-Apr-16 07:28N 22°35' E 120°18'0 0.0
2018-Apr-16 06:58N 22°35' E 120°18'0 0.0
2018-Apr-16 06:31N 22°35' E 120°18'0 0.0
2018-Apr-16 05:58N 22°35' E 120°18'0 0.0
2018-Apr-16 05:28N 22°35' E 120°18'0 0.0
2018-Apr-16 04:58N 22°35' E 120°18'0 0.0
2018-Apr-16 04:28N 22°35' E 120°18'0 0.0
2018-Apr-16 03:58N 22°35' E 120°18'0 0.0
2018-Apr-16 03:25N 22°35' E 120°18'0 0.0
2018-Apr-16 02:58N 22°35' E 120°18'0 0.0
2018-Apr-16 02:25N 22°35' E 120°18'0 0.3
2018-Apr-16 01:59N 22°35' E 120°18'2 3.7
2018-Apr-16 01:31N 22°37' E 120°17'1 2.0
2018-Apr-16 00:58N 22°36' E 120°18'0 0.0
2018-Apr-16 00:28N 22°36' E 120°18'0 0.0
2018-Apr-15 23:55N 22°36' E 120°18'0 0.0
2018-Apr-15 23:28N 22°36' E 120°18'  
Track history (hours):
 
Tides and Currents Weather Stations Pressure Air Temp Water Temp Dewpoint Dewpoint Depression Visibility Wind Speed Wind Dir Waves Ship Positions

Ncc Najd

Last reported at 2018-Apr-25 23:27 UTC. Time now 2018-Apr-27 06:41 UTC.
Position N 01°24' E 103°13'.

Length 183 m; draft 8.1 m.

Type: Tanker. MMSI: 403579000.

Date/timePositionNaut miles runAvg speedWind from/ knotsBaromVisibWave heightAir tempDewpointWater temp
2018-Apr-25 23:27N 01°24' E 103°13'613.6
2018-Apr-25 22:59N 01°20' E 103°18'713.9
2018-Apr-25 22:30N 01°16' E 103°23'714.4
2018-Apr-25 21:59N 01°13' E 103°29'713.7
2018-Apr-25 21:30N 01°11' E 103°36'713.0
2018-Apr-25 20:59N 01°09' E 103°42'3 5.8
2018-Apr-25 20:30N 01°08' E 103°45'2 3.3
2018-Apr-25 20:00N 01°09' E 103°46'3 5.8
2018-Apr-25 19:31N 01°11' E 103°49'612.3
2018-Apr-25 19:00N 01°13' E 103°54'5 9.1
2018-Apr-25 18:30N 01°15' E 103°59'611.7
2018-Apr-25 17:59N 01°16' E 104°05'611.6
2018-Apr-25 17:30N 01°17' E 104°10'712.2
2018-Apr-25 16:58N 01°18' E 104°17'511.4
2018-Apr-25 16:30N 01°20' E 104°21'812.8
2018-Apr-25 15:54N 01°26' E 104°27'713.8
2018-Apr-25 15:25N 01°30' E 104°31'  
2018-Apr-20 16:40N 22°14' E 119°50'514.0
2018-Apr-20 16:20N 22°19' E 119°51'513.4
2018-Apr-20 15:59N 22°23' E 119°51'812.7
2018-Apr-20 15:23N 22°31' E 119°51'512.9
2018-Apr-20 14:58N 22°36' E 119°51'612.9
2018-Apr-20 14:28N 22°43' E 119°51'612.6
2018-Apr-20 13:58N 22°49' E 119°51'2812.4
2018-Apr-20 11:40N 23°18' E 119°53'212.8
2018-Apr-20 11:30N 23°20' E 119°53'613.0
2018-Apr-20 11:00N 23°26' E 119°53'713.4
2018-Apr-20 10:30N 23°33' E 119°53'713.6
2018-Apr-20 10:00N 23°40' E 119°53'713.7
2018-Apr-20 09:30N 23°47' E 119°53'814.2
2018-Apr-20 08:57N 23°55' E 119°53'2713.8
2018-Apr-20 06:58N 24°18' E 120°08'10812.4
2018-Apr-19 22:16N 25°27' E 121°40'312.5
2018-Apr-19 22:01N 25°25' E 121°43'612.3
2018-Apr-19 21:31N 25°20' E 121°47'612.7
2018-Apr-19 21:01N 25°14' E 121°46'510.2
2018-Apr-19 20:30N 25°09' E 121°45'0 0.7
2018-Apr-19 19:58N 25°08' E 121°45'0 0.0
2018-Apr-19 19:29N 25°08' E 121°45'0 0.0
2018-Apr-19 18:59N 25°08' E 121°45'0 0.0
2018-Apr-19 18:29N 25°08' E 121°45'0 0.0
2018-Apr-19 17:58N 25°08' E 121°45'0 0.0
2018-Apr-19 17:25N 25°08' E 121°45'0 0.0
2018-Apr-19 16:59N 25°08' E 121°45'0 0.0
2018-Apr-19 16:29N 25°08' E 121°45'0 0.0
2018-Apr-19 15:59N 25°08' E 121°45'0 0.0
2018-Apr-19 15:29N 25°08' E 121°45'0 0.0
2018-Apr-19 14:59N 25°08' E 121°45'0 0.0
2018-Apr-19 14:29N 25°08' E 121°45'0 0.0
2018-Apr-19 13:56N 25°08' E 121°45'0 0.0
2018-Apr-19 13:29N 25°08' E 121°45'0 0.0
2018-Apr-19 12:59N 25°08' E 121°45'0 0.0
2018-Apr-19 12:28N 25°08' E 121°45'0 0.0
2018-Apr-19 11:59N 25°08' E 121°45'0 0.0
2018-Apr-19 11:29N 25°08' E 121°45'0 0.0
2018-Apr-19 10:59N 25°08' E 121°45'0 0.0
2018-Apr-19 10:25N 25°09' E 121°45'0 0.0
2018-Apr-19 09:59N 25°08' E 121°45'0 0.0
2018-Apr-19 09:29N 25°08' E 121°45'0 0.0
2018-Apr-19 08:58N 25°08' E 121°45'0 0.0
2018-Apr-19 08:28N 25°08' E 121°45'0 0.0
2018-Apr-19 07:58N 25°09' E 121°45'0 0.0
2018-Apr-19 07:30N 25°09' E 121°45'2 4.1
2018-Apr-19 07:00N 25°11' E 121°45'5 9.8
2018-Apr-19 06:30N 25°15' E 121°44'4 7.7
2018-Apr-19 06:00N 25°19' E 121°43'611.9
2018-Apr-19 05:30N 25°25' E 121°41'611.5
2018-Apr-19 05:00N 25°27' E 121°35'9210.4
2018-Apr-18 20:05N 24°20' E 120°25'48 1.3
2018-Apr-17 06:23N 23°41' E 119°54'410.8
2018-Apr-17 06:00N 23°37' E 119°54'511.0
2018-Apr-17 05:30N 23°32' E 119°55'611.1
2018-Apr-17 05:00N 23°26' E 119°55'811.6
2018-Apr-17 04:20N 23°18' E 119°55'512.2
2018-Apr-17 03:55N 23°13' E 119°54'512.5
2018-Apr-17 03:30N 23°08' E 119°54'1513.0
2018-Apr-17 02:21N 22°53' E 119°55'512.9
2018-Apr-17 02:00N 22°49' E 119°55'613.0
2018-Apr-17 01:30N 22°43' E 119°58'612.0
2018-Apr-17 01:00N 22°38' E 120°01'713.5
2018-Apr-17 00:30N 22°38' E 120°08'611.6
2018-Apr-17 00:00N 22°37' E 120°15'3 5.8
2018-Apr-16 23:30N 22°36' E 120°17'1 1.9
2018-Apr-16 22:58N 22°35' E 120°18'0 0.0
2018-Apr-16 22:31N 22°35' E 120°18'0 0.0
2018-Apr-16 22:01N 22°35' E 120°18'0 0.0
2018-Apr-16 21:25N 22°35' E 120°18'0 0.0
2018-Apr-16 20:58N 22°35' E 120°18'0 0.0
2018-Apr-16 20:28N 22°35' E 120°18'0 0.0
2018-Apr-16 19:55N 22°35' E 120°18'0 0.0
2018-Apr-16 19:28N 22°35' E 120°18'0 0.0
2018-Apr-16 18:58N 22°35' E 120°18'0 0.0
2018-Apr-16 18:28N 22°35' E 120°18'0 0.0
2018-Apr-16 18:01N 22°35' E 120°18'0 0.0
2018-Apr-16 17:31N 22°35' E 120°18'0 0.0
2018-Apr-16 16:58N 22°35' E 120°18'0 0.0
2018-Apr-16 16:28N 22°35' E 120°18'0 0.0
2018-Apr-16 16:01N 22°35' E 120°18'0 0.0
2018-Apr-16 15:28N 22°35' E 120°18'0 0.0
2018-Apr-16 14:58N 22°35' E 120°18'0 0.0
2018-Apr-16 14:28N 22°35' E 120°18'0 0.0
2018-Apr-16 13:58N 22°35' E 120°18'0 0.0
2018-Apr-16 13:28N 22°35' E 120°18'0 0.0
2018-Apr-16 12:58N 22°35' E 120°18'0 0.0
2018-Apr-16 12:28N 22°35' E 120°18'0 0.0
2018-Apr-16 12:01N 22°35' E 120°18'0 0.0
2018-Apr-16 11:28N 22°35' E 120°18'0 0.0
2018-Apr-16 10:55N 22°35' E 120°18'0 0.0
2018-Apr-16 10:31N 22°35' E 120°18'0 0.0
2018-Apr-16 09:58N 22°35' E 120°18'0 0.0
2018-Apr-16 09:28N 22°35' E 120°18'0 0.0
2018-Apr-16 08:55N 22°35' E 120°18'0 0.0
2018-Apr-16 08:28N 22°35' E 120°18'0 0.0
2018-Apr-16 07:58N 22°35' E 120°18'0 0.0
2018-Apr-16 07:28N 22°35' E 120°18'0 0.0
2018-Apr-16 06:58N 22°35' E 120°18'0 0.0
2018-Apr-16 06:31N 22°35' E 120°18'0 0.0
2018-Apr-16 05:58N 22°35' E 120°18'0 0.0
2018-Apr-16 05:28N 22°35' E 120°18'0 0.0
2018-Apr-16 04:58N 22°35' E 120°18'0 0.0
2018-Apr-16 04:28N 22°35' E 120°18'0 0.0
2018-Apr-16 03:58N 22°35' E 120°18'0 0.0
2018-Apr-16 03:25N 22°35' E 120°18'0 0.0
2018-Apr-16 02:58N 22°35' E 120°18'0 0.0
2018-Apr-16 02:25N 22°35' E 120°18'0 0.3
2018-Apr-16 01:59N 22°35' E 120°18'2 3.7
2018-Apr-16 01:31N 22°37' E 120°17'1 2.0
2018-Apr-16 00:58N 22°36' E 120°18'0 0.0
2018-Apr-16 00:28N 22°36' E 120°18'0 0.0
2018-Apr-15 23:55N 22°36' E 120°18'0 0.0
2018-Apr-15 23:28N 22°36' E 120°18'  

Dump ship's entire track history